sensor_id;sensor_type;location;lat;lon;timestamp;P1;durP1;ratioP1;P2;durP2;ratioP2
31584;SDS011;18191;51.288;12.390;2023-07-02T00:03:51;1.88;;;1.30;;
31584;SDS011;18191;51.288;12.390;2023-07-02T00:08:42;5.18;;;1.60;;
31584;SDS011;18191;51.288;12.390;2023-07-02T00:13:32;1.95;;;1.38;;
31584;SDS011;18191;51.288;12.390;2023-07-02T00:18:22;5.95;;;1.13;;
31584;SDS011;18191;51.288;12.390;2023-07-02T00:23:12;2.15;;;1.23;;
31584;SDS011;18191;51.288;12.390;2023-07-02T00:28:03;7.20;;;1.13;;
31584;SDS011;18191;51.288;12.390;2023-07-02T00:32:53;6.47;;;1.60;;
31584;SDS011;18191;51.288;12.390;2023-07-02T00:37:44;7.30;;;1.23;;
31584;SDS011;18191;51.288;12.390;2023-07-02T00:42:34;4.72;;;1.42;;
31584;SDS011;18191;51.288;12.390;2023-07-02T00:47:25;2.63;;;1.30;;
31584;SDS011;18191;51.288;12.390;2023-07-02T00:52:16;2.38;;;1.30;;
31584;SDS011;18191;51.288;12.390;2023-07-02T00:57:08;3.25;;;1.40;;
31584;SDS011;18191;51.288;12.390;2023-07-02T01:01:58;1.15;;;0.90;;
31584;SDS011;18191;51.288;12.390;2023-07-02T01:06:49;1.85;;;0.93;;
31584;SDS011;18191;51.288;12.390;2023-07-02T01:11:40;2.75;;;1.40;;
31584;SDS011;18191;51.288;12.390;2023-07-02T01:16:34;7.18;;;1.52;;
31584;SDS011;18191;51.288;12.390;2023-07-02T01:21:27;3.42;;;1.25;;
31584;SDS011;18191;51.288;12.390;2023-07-02T01:26:18;2.15;;;1.20;;
31584;SDS011;18191;51.288;12.390;2023-07-02T01:31:09;1.90;;;1.10;;
31584;SDS011;18191;51.288;12.390;2023-07-02T01:35:59;5.35;;;1.13;;
31584;SDS011;18191;51.288;12.390;2023-07-02T01:40:49;2.45;;;1.27;;
31584;SDS011;18191;51.288;12.390;2023-07-02T01:45:41;6.20;;;1.30;;
31584;SDS011;18191;51.288;12.390;2023-07-02T01:50:31;1.38;;;1.00;;
31584;SDS011;18191;51.288;12.390;2023-07-02T01:55:21;2.88;;;1.27;;
31584;SDS011;18191;51.288;12.390;2023-07-02T02:00:12;5.82;;;1.73;;
31584;SDS011;18191;51.288;12.390;2023-07-02T02:05:02;2.83;;;1.83;;
31584;SDS011;18191;51.288;12.390;2023-07-02T02:09:53;5.05;;;1.70;;
31584;SDS011;18191;51.288;12.390;2023-07-02T02:14:43;4.22;;;1.58;;
31584;SDS011;18191;51.288;12.390;2023-07-02T02:19:33;5.93;;;1.80;;
31584;SDS011;18191;51.288;12.390;2023-07-02T02:24:24;4.53;;;1.75;;
31584;SDS011;18191;51.288;12.390;2023-07-02T02:29:14;8.90;;;2.10;;
31584;SDS011;18191;51.288;12.390;2023-07-02T02:34:04;4.93;;;2.00;;
31584;SDS011;18191;51.288;12.390;2023-07-02T02:38:55;7.90;;;2.08;;
31584;SDS011;18191;51.288;12.390;2023-07-02T02:43:45;10.02;;;2.10;;
31584;SDS011;18191;51.288;12.390;2023-07-02T02:48:36;5.18;;;1.88;;
31584;SDS011;18191;51.288;12.390;2023-07-02T02:53:26;7.00;;;2.08;;
31584;SDS011;18191;51.288;12.390;2023-07-02T02:58:16;3.28;;;1.95;;
31584;SDS011;18191;51.288;12.390;2023-07-02T03:03:06;14.05;;;2.35;;
31584;SDS011;18191;51.288;12.390;2023-07-02T03:07:57;2.78;;;1.80;;
31584;SDS011;18191;51.288;12.390;2023-07-02T03:12:47;6.40;;;1.75;;
31584;SDS011;18191;51.288;12.390;2023-07-02T03:17:37;4.18;;;2.08;;
31584;SDS011;18191;51.288;12.390;2023-07-02T03:22:28;2.80;;;1.85;;
31584;SDS011;18191;51.288;12.390;2023-07-02T03:27:18;8.00;;;2.17;;
31584;SDS011;18191;51.288;12.390;2023-07-02T03:32:08;5.82;;;1.90;;
31584;SDS011;18191;51.288;12.390;2023-07-02T03:36:58;9.45;;;1.80;;
31584;SDS011;18191;51.288;12.390;2023-07-02T03:41:49;4.18;;;2.05;;
31584;SDS011;18191;51.288;12.390;2023-07-02T03:46:39;4.63;;;2.10;;
31584;SDS011;18191;51.288;12.390;2023-07-02T03:51:30;3.40;;;1.92;;
31584;SDS011;18191;51.288;12.390;2023-07-02T03:56:21;2.15;;;1.63;;
31584;SDS011;18191;51.288;12.390;2023-07-02T04:01:11;3.80;;;1.88;;
31584;SDS011;18191;51.288;12.390;2023-07-02T04:06:01;3.97;;;2.05;;
31584;SDS011;18191;51.288;12.390;2023-07-02T04:10:52;7.97;;;2.03;;
31584;SDS011;18191;51.288;12.390;2023-07-02T04:15:42;6.93;;;2.00;;
31584;SDS011;18191;51.288;12.390;2023-07-02T04:20:32;3.45;;;2.20;;
31584;SDS011;18191;51.288;12.390;2023-07-02T04:25:23;2.17;;;1.77;;
31584;SDS011;18191;51.288;12.390;2023-07-02T04:30:13;6.55;;;2.03;;
31584;SDS011;18191;51.288;12.390;2023-07-02T04:35:04;5.40;;;2.72;;
31584;SDS011;18191;51.288;12.390;2023-07-02T04:39:55;2.35;;;1.73;;
31584;SDS011;18191;51.288;12.390;2023-07-02T04:44:45;7.47;;;2.28;;
31584;SDS011;18191;51.288;12.390;2023-07-02T04:49:35;5.15;;;1.98;;
31584;SDS011;18191;51.288;12.390;2023-07-02T04:54:26;4.35;;;1.98;;
31584;SDS011;18191;51.288;12.390;2023-07-02T04:59:17;14.07;;;2.05;;
31584;SDS011;18191;51.288;12.390;2023-07-02T05:04:09;3.47;;;2.28;;
31584;SDS011;18191;51.288;12.390;2023-07-02T05:09:00;7.55;;;2.15;;
31584;SDS011;18191;51.288;12.390;2023-07-02T05:13:50;7.72;;;2.47;;
31584;SDS011;18191;51.288;12.390;2023-07-02T05:18:40;4.63;;;1.90;;
31584;SDS011;18191;51.288;12.390;2023-07-02T05:23:31;5.95;;;2.53;;
31584;SDS011;18191;51.288;12.390;2023-07-02T05:28:21;16.65;;;3.00;;
31584;SDS011;18191;51.288;12.390;2023-07-02T05:33:11;4.25;;;2.75;;
31584;SDS011;18191;51.288;12.390;2023-07-02T05:38:02;6.47;;;2.40;;
31584;SDS011;18191;51.288;12.390;2023-07-02T05:42:52;4.80;;;3.20;;
31584;SDS011;18191;51.288;12.390;2023-07-02T05:47:43;6.68;;;3.25;;
31584;SDS011;18191;51.288;12.390;2023-07-02T05:52:33;8.23;;;3.22;;
31584;SDS011;18191;51.288;12.390;2023-07-02T05:57:23;4.75;;;3.08;;
31584;SDS011;18191;51.288;12.390;2023-07-02T06:02:13;6.53;;;3.53;;
31584;SDS011;18191;51.288;12.390;2023-07-02T06:07:04;4.03;;;3.03;;
31584;SDS011;18191;51.288;12.390;2023-07-02T06:11:54;6.55;;;3.25;;
31584;SDS011;18191;51.288;12.390;2023-07-02T06:16:44;7.30;;;2.83;;
31584;SDS011;18191;51.288;12.390;2023-07-02T06:21:35;3.55;;;2.70;;
31584;SDS011;18191;51.288;12.390;2023-07-02T06:26:26;4.68;;;3.03;;
31584;SDS011;18191;51.288;12.390;2023-07-02T06:31:16;5.10;;;2.55;;
31584;SDS011;18191;51.288;12.390;2023-07-02T06:36:06;5.22;;;2.50;;
31584;SDS011;18191;51.288;12.390;2023-07-02T06:40:57;2.90;;;2.10;;
31584;SDS011;18191;51.288;12.390;2023-07-02T06:45:47;5.70;;;2.10;;
31584;SDS011;18191;51.288;12.390;2023-07-02T06:50:37;5.82;;;2.67;;
31584;SDS011;18191;51.288;12.390;2023-07-02T06:55:27;5.63;;;2.20;;
31584;SDS011;18191;51.288;12.390;2023-07-02T07:00:18;5.78;;;1.95;;
31584;SDS011;18191;51.288;12.390;2023-07-02T07:05:08;8.68;;;2.70;;
31584;SDS011;18191;51.288;12.390;2023-07-02T07:09:59;5.45;;;1.75;;
31584;SDS011;18191;51.288;12.390;2023-07-02T07:14:49;3.65;;;1.90;;
31584;SDS011;18191;51.288;12.390;2023-07-02T07:19:40;1.80;;;1.30;;
31584;SDS011;18191;51.288;12.390;2023-07-02T07:24:30;2.72;;;1.63;;
31584;SDS011;18191;51.288;12.390;2023-07-02T07:29:21;3.00;;;1.52;;
31584;SDS011;18191;51.288;12.390;2023-07-02T07:34:11;1.67;;;1.20;;
31584;SDS011;18191;51.288;12.390;2023-07-02T07:39:03;3.25;;;1.27;;
31584;SDS011;18191;51.288;12.390;2023-07-02T07:43:53;2.42;;;1.20;;
31584;SDS011;18191;51.288;12.390;2023-07-02T07:48:43;5.72;;;1.33;;
31584;SDS011;18191;51.288;12.390;2023-07-02T07:53:34;6.18;;;1.90;;
31584;SDS011;18191;51.288;12.390;2023-07-02T07:58:28;2.25;;;1.50;;
31584;SDS011;18191;51.288;12.390;2023-07-02T08:03:19;3.13;;;1.67;;
31584;SDS011;18191;51.288;12.390;2023-07-02T08:08:09;1.85;;;1.40;;
31584;SDS011;18191;51.288;12.390;2023-07-02T08:12:59;2.38;;;1.38;;
31584;SDS011;18191;51.288;12.390;2023-07-02T08:17:50;14.25;;;1.30;;
31584;SDS011;18191;51.288;12.390;2023-07-02T08:22:44;1.83;;;1.38;;
31584;SDS011;18191;51.288;12.390;2023-07-02T08:27:34;1.67;;;1.23;;
31584;SDS011;18191;51.288;12.390;2023-07-02T08:32:24;5.38;;;1.65;;
31584;SDS011;18191;51.288;12.390;2023-07-02T08:37:15;2.10;;;1.17;;
31584;SDS011;18191;51.288;12.390;2023-07-02T08:42:05;5.72;;;1.65;;
31584;SDS011;18191;51.288;12.390;2023-07-02T08:46:55;6.20;;;1.33;;
31584;SDS011;18191;51.288;12.390;2023-07-02T08:51:47;2.50;;;1.42;;
31584;SDS011;18191;51.288;12.390;2023-07-02T08:56:38;7.37;;;1.90;;
31584;SDS011;18191;51.288;12.390;2023-07-02T09:01:28;2.58;;;1.08;;
31584;SDS011;18191;51.288;12.390;2023-07-02T09:06:18;7.05;;;1.40;;
31584;SDS011;18191;51.288;12.390;2023-07-02T09:11:10;3.90;;;1.75;;
31584;SDS011;18191;51.288;12.390;2023-07-02T09:16:05;3.20;;;1.38;;
31584;SDS011;18191;51.288;12.390;2023-07-02T09:20:55;4.35;;;1.80;;
31584;SDS011;18191;51.288;12.390;2023-07-02T09:25:46;9.50;;;1.83;;
31584;SDS011;18191;51.288;12.390;2023-07-02T09:30:36;4.43;;;1.60;;
31584;SDS011;18191;51.288;12.390;2023-07-02T09:35:26;10.63;;;2.22;;
31584;SDS011;18191;51.288;12.390;2023-07-02T09:40:17;3.55;;;1.90;;
31584;SDS011;18191;51.288;12.390;2023-07-02T09:45:08;3.22;;;1.75;;
31584;SDS011;18191;51.288;12.390;2023-07-02T09:50:02;15.45;;;1.98;;
31584;SDS011;18191;51.288;12.390;2023-07-02T09:54:55;9.00;;;2.75;;
31584;SDS011;18191;51.288;12.390;2023-07-02T09:59:46;6.57;;;2.20;;
31584;SDS011;18191;51.288;12.390;2023-07-02T10:04:43;4.47;;;2.75;;
31584;SDS011;18191;51.288;12.390;2023-07-02T10:09:35;8.10;;;2.38;;
31584;SDS011;18191;51.288;12.390;2023-07-02T10:14:26;7.72;;;2.70;;
31584;SDS011;18191;51.288;12.390;2023-07-02T10:19:19;3.90;;;2.63;;
31584;SDS011;18191;51.288;12.390;2023-07-02T10:24:14;6.15;;;2.38;;
31584;SDS011;18191;51.288;12.390;2023-07-02T10:29:06;10.00;;;2.75;;
31584;SDS011;18191;51.288;12.390;2023-07-02T10:33:56;11.40;;;2.90;;
31584;SDS011;18191;51.288;12.390;2023-07-02T10:38:47;5.33;;;3.17;;
31584;SDS011;18191;51.288;12.390;2023-07-02T10:43:38;13.90;;;3.00;;
31584;SDS011;18191;51.288;12.390;2023-07-02T10:48:28;14.40;;;3.00;;
31584;SDS011;18191;51.288;12.390;2023-07-02T10:53:19;7.90;;;3.17;;
31584;SDS011;18191;51.288;12.390;2023-07-02T10:58:10;6.32;;;2.65;;
31584;SDS011;18191;51.288;12.390;2023-07-02T11:03:02;7.25;;;3.28;;
31584;SDS011;18191;51.288;12.390;2023-07-02T11:07:53;7.50;;;3.47;;
31584;SDS011;18191;51.288;12.390;2023-07-02T11:12:47;11.63;;;4.35;;
31584;SDS011;18191;51.288;12.390;2023-07-02T11:17:37;8.55;;;3.53;;
31584;SDS011;18191;51.288;12.390;2023-07-02T11:22:31;9.35;;;3.92;;
31584;SDS011;18191;51.288;12.390;2023-07-02T11:27:23;30.55;;;4.72;;
31584;SDS011;18191;51.288;12.390;2023-07-02T11:32:13;10.30;;;3.93;;
31584;SDS011;18191;51.288;12.390;2023-07-02T11:37:04;12.43;;;4.28;;
31584;SDS011;18191;51.288;12.390;2023-07-02T11:41:55;8.07;;;4.10;;
31584;SDS011;18191;51.288;12.390;2023-07-02T11:46:47;25.67;;;4.93;;
31584;SDS011;18191;51.288;12.390;2023-07-02T11:51:37;9.70;;;4.38;;
31584;SDS011;18191;51.288;12.390;2023-07-02T11:56:32;10.52;;;4.63;;
31584;SDS011;18191;51.288;12.390;2023-07-02T12:01:23;11.00;;;4.97;;
31584;SDS011;18191;51.288;12.390;2023-07-02T12:06:13;11.57;;;5.10;;
31584;SDS011;18191;51.288;12.390;2023-07-02T12:11:03;9.63;;;4.07;;
31584;SDS011;18191;51.288;12.390;2023-07-02T12:15:54;11.68;;;4.03;;
31584;SDS011;18191;51.288;12.390;2023-07-02T12:20:44;8.43;;;4.30;;
31584;SDS011;18191;51.288;12.390;2023-07-02T12:25:35;17.45;;;5.00;;
31584;SDS011;18191;51.288;12.390;2023-07-02T12:30:25;9.55;;;5.47;;
31584;SDS011;18191;51.288;12.390;2023-07-02T12:35:15;13.48;;;5.05;;
31584;SDS011;18191;51.288;12.390;2023-07-02T12:40:06;10.93;;;3.97;;
31584;SDS011;18191;51.288;12.390;2023-07-02T12:44:56;9.95;;;4.53;;
31584;SDS011;18191;51.288;12.390;2023-07-02T12:49:46;18.77;;;5.00;;
31584;SDS011;18191;51.288;12.390;2023-07-02T12:54:37;11.20;;;5.53;;
31584;SDS011;18191;51.288;12.390;2023-07-02T12:59:27;13.40;;;4.85;;
31584;SDS011;18191;51.288;12.390;2023-07-02T13:04:17;11.48;;;5.05;;
31584;SDS011;18191;51.288;12.390;2023-07-02T13:09:08;14.35;;;5.40;;
31584;SDS011;18191;51.288;12.390;2023-07-02T13:13:58;12.00;;;5.55;;
31584;SDS011;18191;51.288;12.390;2023-07-02T13:18:48;12.70;;;5.35;;
31584;SDS011;18191;51.288;12.390;2023-07-02T13:23:39;12.93;;;5.15;;
31584;SDS011;18191;51.288;12.390;2023-07-02T13:28:29;12.10;;;6.25;;
31584;SDS011;18191;51.288;12.390;2023-07-02T13:33:19;12.77;;;5.40;;
31584;SDS011;18191;51.288;12.390;2023-07-02T13:38:09;13.60;;;5.57;;
31584;SDS011;18191;51.288;12.390;2023-07-02T13:43:00;18.88;;;6.63;;
31584;SDS011;18191;51.288;12.390;2023-07-02T13:47:50;21.07;;;6.50;;
31584;SDS011;18191;51.288;12.390;2023-07-02T13:52:40;14.73;;;6.00;;
31584;SDS011;18191;51.288;12.390;2023-07-02T13:57:31;16.27;;;6.70;;
31584;SDS011;18191;51.288;12.390;2023-07-02T14:02:21;18.05;;;6.95;;
31584;SDS011;18191;51.288;12.390;2023-07-02T14:07:11;14.13;;;6.57;;
31584;SDS011;18191;51.288;12.390;2023-07-02T14:12:02;18.58;;;6.97;;
31584;SDS011;18191;51.288;12.390;2023-07-02T14:16:53;19.58;;;6.93;;
31584;SDS011;18191;51.288;12.390;2023-07-02T14:21:43;15.93;;;6.40;;
31584;SDS011;18191;51.288;12.390;2023-07-02T14:26:36;16.98;;;7.10;;
31584;SDS011;18191;51.288;12.390;2023-07-02T14:31:26;21.35;;;7.07;;
31584;SDS011;18191;51.288;12.390;2023-07-02T14:36:16;27.03;;;7.97;;
31584;SDS011;18191;51.288;12.390;2023-07-02T14:41:07;20.83;;;7.80;;
31584;SDS011;18191;51.288;12.390;2023-07-02T14:45:58;26.13;;;7.27;;
31584;SDS011;18191;51.288;12.390;2023-07-02T14:50:52;14.10;;;5.60;;
31584;SDS011;18191;51.288;12.390;2023-07-02T14:55:46;20.40;;;6.68;;
31584;SDS011;18191;51.288;12.390;2023-07-02T15:00:47;14.13;;;6.40;;
31584;SDS011;18191;51.288;12.390;2023-07-02T15:05:47;24.35;;;7.90;;
31584;SDS011;18191;51.288;12.390;2023-07-02T15:10:38;20.73;;;6.88;;
31584;SDS011;18191;51.288;12.390;2023-07-02T15:15:30;18.50;;;7.05;;
31584;SDS011;18191;51.288;12.390;2023-07-02T15:20:20;15.27;;;7.03;;
31584;SDS011;18191;51.288;12.390;2023-07-02T15:25:10;18.85;;;6.45;;
31584;SDS011;18191;51.288;12.390;2023-07-02T15:30:00;21.77;;;8.38;;
31584;SDS011;18191;51.288;12.390;2023-07-02T15:34:51;17.92;;;6.47;;
31584;SDS011;18191;51.288;12.390;2023-07-02T15:39:41;16.40;;;6.27;;
31584;SDS011;18191;51.288;12.390;2023-07-02T15:44:32;17.40;;;7.32;;
31584;SDS011;18191;51.288;12.390;2023-07-02T15:49:23;24.33;;;7.28;;
31584;SDS011;18191;51.288;12.390;2023-07-02T15:54:14;20.60;;;7.07;;
31584;SDS011;18191;51.288;12.390;2023-07-02T15:59:04;23.87;;;7.60;;
31584;SDS011;18191;51.288;12.390;2023-07-02T16:03:58;24.92;;;7.32;;
31584;SDS011;18191;51.288;12.390;2023-07-02T16:08:48;24.73;;;7.33;;
31584;SDS011;18191;51.288;12.390;2023-07-02T16:13:39;21.35;;;7.65;;
31584;SDS011;18191;51.288;12.390;2023-07-02T16:18:32;28.48;;;6.88;;
31584;SDS011;18191;51.288;12.390;2023-07-02T16:23:22;17.97;;;7.17;;
31584;SDS011;18191;51.288;12.390;2023-07-02T16:28:13;30.10;;;8.50;;
31584;SDS011;18191;51.288;12.390;2023-07-02T16:33:03;17.63;;;6.85;;
31584;SDS011;18191;51.288;12.390;2023-07-02T16:37:53;22.70;;;8.27;;
31584;SDS011;18191;51.288;12.390;2023-07-02T16:42:43;20.65;;;8.15;;
31584;SDS011;18191;51.288;12.390;2023-07-02T16:47:34;21.13;;;7.78;;
31584;SDS011;18191;51.288;12.390;2023-07-02T16:52:24;20.73;;;7.83;;
31584;SDS011;18191;51.288;12.390;2023-07-02T16:57:14;17.83;;;7.72;;
31584;SDS011;18191;51.288;12.390;2023-07-02T17:02:06;24.00;;;8.88;;
31584;SDS011;18191;51.288;12.390;2023-07-02T17:06:58;18.48;;;7.55;;
31584;SDS011;18191;51.288;12.390;2023-07-02T17:11:49;21.23;;;7.05;;
31584;SDS011;18191;51.288;12.390;2023-07-02T17:16:41;22.70;;;7.35;;
31584;SDS011;18191;51.288;12.390;2023-07-02T17:21:31;24.50;;;9.00;;
31584;SDS011;18191;51.288;12.390;2023-07-02T17:26:22;24.92;;;7.28;;
31584;SDS011;18191;51.288;12.390;2023-07-02T17:31:12;27.52;;;7.65;;
31584;SDS011;18191;51.288;12.390;2023-07-02T17:36:02;19.13;;;6.20;;
31584;SDS011;18191;51.288;12.390;2023-07-02T17:40:53;18.75;;;7.25;;
31584;SDS011;18191;51.288;12.390;2023-07-02T17:45:53;17.33;;;7.05;;
31584;SDS011;18191;51.288;12.390;2023-07-02T17:50:52;21.20;;;7.07;;
31584;SDS011;18191;51.288;12.390;2023-07-02T17:55:47;22.17;;;8.50;;
31584;SDS011;18191;51.288;12.390;2023-07-02T18:00:38;23.13;;;7.20;;
31584;SDS011;18191;51.288;12.390;2023-07-02T18:05:28;23.98;;;7.85;;
31584;SDS011;18191;51.288;12.390;2023-07-02T18:10:19;21.45;;;8.38;;
31584;SDS011;18191;51.288;12.390;2023-07-02T18:15:09;25.70;;;7.53;;
31584;SDS011;18191;51.288;12.390;2023-07-02T18:19:59;24.15;;;8.55;;
31584;SDS011;18191;51.288;12.390;2023-07-02T18:24:50;23.00;;;8.75;;
31584;SDS011;18191;51.288;12.390;2023-07-02T18:29:41;27.00;;;7.78;;
31584;SDS011;18191;51.288;12.390;2023-07-02T18:34:32;18.00;;;7.90;;
31584;SDS011;18191;51.288;12.390;2023-07-02T18:39:29;29.92;;;8.35;;
31584;SDS011;18191;51.288;12.390;2023-07-02T18:44:24;20.50;;;7.97;;
31584;SDS011;18191;51.288;12.390;2023-07-02T18:49:17;34.08;;;8.73;;
31584;SDS011;18191;51.288;12.390;2023-07-02T18:54:08;28.75;;;9.70;;
31584;SDS011;18191;51.288;12.390;2023-07-02T18:58:58;31.67;;;8.23;;
31584;SDS011;18191;51.288;12.390;2023-07-02T19:03:48;26.70;;;8.65;;
31584;SDS011;18191;51.288;12.390;2023-07-02T19:08:39;32.60;;;8.80;;
31584;SDS011;18191;51.288;12.390;2023-07-02T19:13:30;37.25;;;10.38;;
31584;SDS011;18191;51.288;12.390;2023-07-02T19:18:21;30.15;;;9.30;;
31584;SDS011;18191;51.288;12.390;2023-07-02T19:23:12;30.70;;;10.50;;
31584;SDS011;18191;51.288;12.390;2023-07-02T19:28:02;26.17;;;8.63;;
31584;SDS011;18191;51.288;12.390;2023-07-02T19:32:52;26.70;;;8.48;;
31584;SDS011;18191;51.288;12.390;2023-07-02T19:37:43;27.20;;;9.77;;
31584;SDS011;18191;51.288;12.390;2023-07-02T19:42:33;27.95;;;8.88;;
31584;SDS011;18191;51.288;12.390;2023-07-02T19:47:25;28.50;;;9.38;;
31584;SDS011;18191;51.288;12.390;2023-07-02T19:52:17;35.85;;;8.95;;
31584;SDS011;18191;51.288;12.390;2023-07-02T19:57:08;27.52;;;10.27;;
31584;SDS011;18191;51.288;12.390;2023-07-02T20:02:03;27.27;;;9.00;;
31584;SDS011;18191;51.288;12.390;2023-07-02T20:06:53;36.10;;;10.65;;
31584;SDS011;18191;51.288;12.390;2023-07-02T20:11:43;39.67;;;11.85;;
31584;SDS011;18191;51.288;12.390;2023-07-02T20:16:34;27.92;;;9.75;;
31584;SDS011;18191;51.288;12.390;2023-07-02T20:21:24;30.30;;;10.45;;
31584;SDS011;18191;51.288;12.390;2023-07-02T20:26:14;23.23;;;9.65;;
31584;SDS011;18191;51.288;12.390;2023-07-02T20:31:05;29.23;;;10.60;;
31584;SDS011;18191;51.288;12.390;2023-07-02T20:35:56;34.83;;;9.95;;
31584;SDS011;18191;51.288;12.390;2023-07-02T20:40:54;41.83;;;10.40;;
31584;SDS011;18191;51.288;12.390;2023-07-02T20:45:50;30.58;;;10.15;;
31584;SDS011;18191;51.288;12.390;2023-07-02T20:50:43;37.97;;;10.88;;
31584;SDS011;18191;51.288;12.390;2023-07-02T20:55:33;34.25;;;9.35;;
31584;SDS011;18191;51.288;12.390;2023-07-02T21:00:23;33.85;;;10.23;;
31584;SDS011;18191;51.288;12.390;2023-07-02T21:05:14;22.60;;;8.45;;
31584;SDS011;18191;51.288;12.390;2023-07-02T21:10:05;33.40;;;9.48;;
31584;SDS011;18191;51.288;12.390;2023-07-02T21:14:55;28.85;;;9.57;;
31584;SDS011;18191;51.288;12.390;2023-07-02T21:19:46;27.63;;;9.38;;
31584;SDS011;18191;51.288;12.390;2023-07-02T21:24:36;24.05;;;8.18;;
31584;SDS011;18191;51.288;12.390;2023-07-02T21:29:27;26.33;;;8.75;;
31584;SDS011;18191;51.288;12.390;2023-07-02T21:34:17;49.28;;;11.10;;
31584;SDS011;18191;51.288;12.390;2023-07-02T21:39:07;23.70;;;9.63;;
31584;SDS011;18191;51.288;12.390;2023-07-02T21:43:58;24.27;;;9.88;;
31584;SDS011;18191;51.288;12.390;2023-07-02T21:48:49;30.15;;;9.48;;
31584;SDS011;18191;51.288;12.390;2023-07-02T21:53:39;31.27;;;10.43;;
31584;SDS011;18191;51.288;12.390;2023-07-02T21:58:29;27.08;;;9.77;;
31584;SDS011;18191;51.288;12.390;2023-07-02T22:03:20;26.10;;;9.52;;
31584;SDS011;18191;51.288;12.390;2023-07-02T22:08:10;26.67;;;10.18;;
31584;SDS011;18191;51.288;12.390;2023-07-02T22:13:01;30.80;;;10.45;;
31584;SDS011;18191;51.288;12.390;2023-07-02T22:17:52;30.80;;;10.82;;
31584;SDS011;18191;51.288;12.390;2023-07-02T22:27:33;25.95;;;9.68;;
31584;SDS011;18191;51.288;12.390;2023-07-02T22:32:24;26.90;;;9.75;;
31584;SDS011;18191;51.288;12.390;2023-07-02T22:42:05;29.02;;;10.70;;
31584;SDS011;18191;51.288;12.390;2023-07-02T22:51:48;36.08;;;11.50;;
31584;SDS011;18191;51.288;12.390;2023-07-02T23:01:29;33.05;;;10.55;;
31584;SDS011;18191;51.288;12.390;2023-07-02T23:11:11;26.98;;;9.55;;
31584;SDS011;18191;51.288;12.390;2023-07-02T23:16:02;29.30;;;10.32;;
31584;SDS011;18191;51.288;12.390;2023-07-02T23:25:44;35.22;;;10.63;;
31584;SDS011;18191;51.288;12.390;2023-07-02T23:30:38;27.13;;;9.45;;
31584;SDS011;18191;51.288;12.390;2023-07-02T23:40:18;28.02;;;9.70;;
31584;SDS011;18191;51.288;12.390;2023-07-02T23:45:09;29.80;;;10.88;;
31584;SDS011;18191;51.288;12.390;2023-07-02T23:50:00;26.00;;;9.52;;
31584;SDS011;18191;51.288;12.390;2023-07-02T23:59:41;25.90;;;10.32;;
